Time;durP1;ratioP1;P1;durP2;ratioP2;P2;SDS_P1;SDS_P2;PMS_P1;PMS_P2;Temp;Humidity;BMP_temperature;BMP_pressure;BME280_temperature;BME280_humidity;BME280_pressure;Samples;Min_cycle;Max_cycle;Signal;HPM_P1;HPM_P2
2023/11/12 00:01:56;;;;;;;7.13;6.53;;;4.50;99.90;;;5.04;100.00;97207.06;10437903;28;20690;-64
2023/11/12 00:06:59;;;;;;;7.20;6.27;;;4.50;99.90;;;5.11;100.00;97191.47;10430510;28;20300;-64
2023/11/12 00:12:03;;;;;;;7.00;6.30;;;4.50;99.90;;;5.10;100.00;97190.59;10438032;28;20229;-67
2023/11/12 00:17:09;;;;;;;7.37;6.67;;;4.50;99.90;;;5.13;100.00;97182.34;10432528;28;20252;-65
2023/11/12 00:22:13;;;;;;;8.37;7.67;;;4.60;99.90;;;5.16;100.00;97180.00;10434831;28;20236;-65
2023/11/12 00:27:18;;;;;;;8.23;7.40;;;4.50;99.90;;;5.22;100.00;97177.88;10442716;28;20233;-65
2023/11/12 00:32:23;;;;;;;8.20;7.50;;;4.50;99.90;;;4.92;100.00;97172.53;10439281;28;20235;-64
2023/11/12 00:37:26;;;;;;;9.43;8.07;;;4.30;99.90;;;4.95;100.00;97164.25;10442916;28;20239;-66
2023/11/12 00:42:30;;;;;;;8.10;7.37;;;4.30;99.90;;;4.97;100.00;97163.56;10443747;28;20231;-64
2023/11/12 00:47:34;;;;;;;7.67;7.07;;;4.30;99.90;;;5.01;100.00;97163.78;10442163;28;20221;-65
2023/11/12 00:52:37;;;;;;;8.10;7.40;;;4.40;99.90;;;4.93;100.00;97160.75;10436928;28;20229;-65
2023/11/12 00:57:40;;;;;;;8.23;7.53;;;4.40;99.90;;;4.95;100.00;97155.00;10434966;28;20287;-65
2023/11/12 01:02:45;;;;;;;7.70;6.97;;;4.30;99.90;;;5.06;100.00;97147.25;10437567;28;20228;-64
2023/11/12 01:07:49;;;;;;;8.17;7.47;;;4.30;99.90;;;4.88;100.00;97149.44;10437873;28;20229;-64
2023/11/12 01:12:52;;;;;;;7.77;7.17;;;4.30;99.90;;;4.89;100.00;97141.94;10436962;28;20756;-64
2023/11/12 01:17:57;;;;;;;8.33;7.57;;;4.30;99.90;;;4.73;100.00;97137.50;10434149;28;20783;-65
2023/11/12 01:23:00;;;;;;;7.23;6.63;;;4.10;99.90;;;4.68;100.00;97130.38;10433583;28;21422;-64
2023/11/12 01:28:04;;;;;;;8.83;7.97;;;4.10;99.90;;;4.68;100.00;97128.72;10436148;28;20704;-64
2023/11/12 01:33:10;;;;;;;8.53;7.83;;;4.10;99.90;;;4.58;100.00;97121.28;10438091;28;20234;-64
2023/11/12 01:38:13;;;;;;;8.90;8.20;;;4.00;99.90;;;4.46;100.00;97120.44;10434000;28;20226;-66
2023/11/12 01:43:17;;;;;;;6.47;5.40;;;3.90;99.90;;;4.36;100.00;97118.94;10436569;28;20232;-65
2023/11/12 01:48:21;;;;;;;5.40;5.00;;;3.80;99.90;;;4.29;100.00;97119.28;10432024;28;20233;-66
2023/11/12 01:53:25;;;;;;;4.33;4.03;;;3.70;99.90;;;4.25;100.00;97119.84;10433893;28;20233;-64
2023/11/12 01:58:30;;;;;;;6.10;5.50;;;3.60;99.90;;;4.09;100.00;97117.00;10434456;28;20243;-64
2023/11/12 02:03:37;;;;;;;9.20;8.30;;;3.50;99.90;;;3.91;100.00;97111.56;10433677;28;20312;-64
2023/11/12 02:08:41;;;;;;;8.70;7.37;;;3.30;99.90;;;3.75;100.00;97112.13;10429069;28;20226;-65
2023/11/12 02:13:44;;;;;;;8.87;7.60;;;3.20;99.90;;;3.69;100.00;97115.13;10435215;28;20311;-64
2023/11/12 02:18:48;;;;;;;8.77;7.97;;;3.20;99.90;;;3.80;100.00;97119.25;10430119;28;20240;-64
2023/11/12 02:23:53;;;;;;;8.50;7.70;;;3.30;99.90;;;3.84;100.00;97115.31;10430066;28;20236;-64
2023/11/12 02:28:57;;;;;;;7.23;6.63;;;3.30;99.90;;;3.81;100.00;97112.56;10434431;28;20595;-64
2023/11/12 02:34:00;;;;;;;6.27;5.77;;;3.20;99.90;;;3.77;100.00;97113.13;10430342;28;20307;-64
2023/11/12 02:39:07;;;;;;;6.17;5.67;;;3.20;99.90;;;3.73;100.00;97119.59;10439122;28;20592;-65
2023/11/12 02:44:11;;;;;;;6.93;6.43;;;3.10;99.90;;;3.72;100.00;97105.22;10438536;28;20245;-65
2023/11/12 02:49:37;;;;;;;6.20;5.70;;;3.10;99.90;;;3.47;100.00;97102.59;10442626;28;20228;-65
2023/11/12 02:54:42;;;;;;;6.27;5.67;;;2.90;99.90;;;3.46;100.00;97099.94;10437131;28;20232;-66
2023/11/12 02:59:45;;;;;;;6.47;5.97;;;2.90;99.90;;;3.38;100.00;97097.75;10439675;28;20234;-66
2023/11/12 03:04:49;;;;;;;7.37;6.67;;;2.80;99.90;;;3.25;100.00;97090.06;10443466;28;20225;-64
2023/11/12 03:09:54;;;;;;;6.70;6.10;;;2.70;99.90;;;3.30;100.00;97077.78;10436822;28;20244;-64
2023/11/12 03:14:57;;;;;;;8.63;7.20;;;2.70;99.90;;;3.16;100.00;97065.03;10439558;28;20223;-64
2023/11/12 03:20:03;;;;;;;7.87;7.17;;;2.60;99.90;;;3.09;100.00;97039.22;10436699;28;20239;-64
2023/11/12 03:25:09;;;;;;;7.43;6.73;;;2.50;99.90;;;2.98;100.00;97033.41;10434098;28;20337;-65
2023/11/12 03:30:14;;;;;;;14.67;7.70;;;2.40;99.90;;;2.92;100.00;97027.94;10435587;28;20284;-64
2023/11/12 03:35:18;;;;;;;8.57;7.20;;;2.40;99.90;;;2.77;100.00;97017.56;10438364;28;20230;-64
2023/11/12 03:40:23;;;;;;;7.93;6.57;;;2.30;99.90;;;2.69;100.00;97019.56;10435567;28;20228;-65
2023/11/12 03:45:26;;;;;;;8.00;7.33;;;2.20;99.90;;;2.58;100.00;97011.97;10435831;28;20222;-65
2023/11/12 03:50:29;;;;;;;8.63;7.93;;;2.10;99.90;;;2.44;100.00;97000.88;10441295;28;20226;-64
2023/11/12 03:55:34;;;;;;;54.80;10.87;;;2.00;99.90;;;2.37;100.00;97011.25;10438886;28;20217;-63
2023/11/12 04:00:37;;;;;;;10.00;8.60;;;1.90;99.90;;;2.27;100.00;97009.69;10438241;28;20221;-64
2023/11/12 04:05:41;;;;;;;11.70;8.60;;;1.80;99.90;;;2.23;100.00;97006.06;10440112;28;20225;-64
2023/11/12 04:10:46;;;;;;;11.60;10.50;;;1.80;99.90;;;2.22;100.00;96996.72;10432470;28;20906;-64
2023/11/12 04:15:49;;;;;;;11.77;10.67;;;1.80;99.90;;;2.32;100.00;96980.66;10429057;28;20228;-64
2023/11/12 04:20:52;;;;;;;10.63;9.40;;;1.80;99.90;;;2.08;100.00;96986.38;10441118;28;20235;-64
2023/11/12 04:25:57;;;;;;;9.73;8.83;;;1.80;99.90;;;2.21;100.00;96982.38;10441079;28;20228;-64
2023/11/12 04:31:00;;;;;;;10.97;9.97;;;1.80;99.90;;;2.28;100.00;96975.28;10439865;28;20233;-64
2023/11/12 04:36:04;;;;;;;10.20;9.13;;;1.80;99.90;;;2.32;100.00;96979.75;10439575;28;20225;-63
2023/11/12 04:41:09;;;;;;;10.63;9.67;;;1.80;99.90;;;2.14;100.00;96975.13;10439013;28;20231;-64
2023/11/12 04:46:13;;;;;;;10.10;9.20;;;1.70;99.90;;;2.25;100.00;96974.28;10436356;28;20221;-64
2023/11/12 04:51:17;;;;;;;8.80;8.00;;;1.70;99.90;;;2.25;100.00;96963.31;10435638;28;20228;-63
2023/11/12 04:56:22;;;;;;;9.37;8.63;;;1.70;99.90;;;2.01;100.00;96972.47;10440931;28;20606;-63
2023/11/12 05:01:25;;;;;;;9.87;8.97;;;1.60;99.90;;;2.05;100.00;96969.38;10432558;28;20221;-63
2023/11/12 05:06:29;;;;;;;9.77;8.67;;;1.60;99.90;;;2.09;100.00;96971.41;10437772;28;20254;-64
2023/11/12 05:11:34;;;;;;;9.70;8.70;;;1.60;99.90;;;2.01;100.00;96962.38;10439835;28;20306;-63
2023/11/12 05:16:37;;;;;;;9.20;8.40;;;1.50;99.90;;;1.97;100.00;96967.94;10434991;28;20784;-64
2023/11/12 05:21:45;;;;;;;8.53;7.77;;;1.50;99.90;;;2.05;100.00;96961.84;10440212;28;20229;-63
2023/11/12 05:26:49;;;;;;;8.03;7.27;;;1.50;99.90;;;2.11;100.00;96974.00;10442579;28;20235;-64
2023/11/12 05:31:52;;;;;;;8.80;8.20;;;1.50;99.90;;;1.92;100.00;96974.28;10438008;28;20728;-64
2023/11/12 05:36:58;;;;;;;9.03;8.33;;;1.40;99.90;;;1.87;100.00;96973.06;10440484;28;20236;-64
2023/11/12 05:42:02;;;;;;;8.47;7.77;;;1.40;99.90;;;1.82;100.00;96974.34;10437801;28;20223;-63
2023/11/12 05:47:06;;;;;;;9.53;8.63;;;1.40;99.90;;;1.82;100.00;96972.69;10424878;28;20228;-64
2023/11/12 05:52:10;;;;;;;9.67;8.77;;;1.30;99.90;;;1.88;100.00;96980.72;10423897;28;20243;-63
2023/11/12 05:57:14;;;;;;;7.50;6.90;;;1.40;99.90;;;1.84;100.00;96975.34;10427517;28;20231;-65
2023/11/12 06:02:17;;;;;;;7.73;7.03;;;1.30;99.90;;;1.90;100.00;96984.25;10425603;28;20825;-64
2023/11/12 06:07:20;;;;;;;8.03;7.33;;;1.40;99.90;;;1.99;100.00;96989.97;10427957;28;20225;-64
2023/11/12 06:12:25;;;;;;;8.43;7.73;;;1.50;99.90;;;2.13;100.00;96997.69;10423920;28;20254;-64
2023/11/12 06:17:28;;;;;;;8.87;8.17;;;1.50;99.90;;;2.15;100.00;97002.09;10430759;28;20698;-64
2023/11/12 06:22:32;;;;;;;9.73;8.93;;;1.60;99.90;;;2.12;100.00;97014.47;10439498;28;20243;-64
2023/11/12 06:27:36;;;;;;;12.77;11.47;;;1.60;99.90;;;2.11;100.00;97020.25;10437054;28;20239;-64
2023/11/12 06:32:40;;;;;;;7.73;7.13;;;1.60;99.90;;;2.09;100.00;97020.91;10437436;28;20233;-65
2023/11/12 06:37:43;;;;;;;9.30;8.40;;;1.50;99.90;;;2.12;100.00;97028.69;10428549;28;20240;-64
2023/11/12 06:42:48;;;;;;;8.50;7.33;;;1.50;99.90;;;2.12;100.00;97039.66;10428119;28;20229;-64
2023/11/12 06:47:51;;;;;;;9.27;8.47;;;1.50;99.90;;;2.11;100.00;97042.94;10422639;28;20237;-64
2023/11/12 06:52:54;;;;;;;8.03;7.33;;;1.50;99.90;;;2.07;100.00;97047.66;10423730;28;20231;-63
2023/11/12 06:57:59;;;;;;;6.90;6.30;;;1.50;99.90;;;1.94;100.00;97055.88;10426759;28;20231;-65
2023/11/12 07:03:02;;;;;;;9.20;8.40;;;1.40;99.90;;;2.15;100.00;97057.53;10433581;28;20396;-65
2023/11/12 07:08:06;;;;;;;8.70;8.00;;;1.60;99.90;;;2.29;100.00;97067.78;10440314;28;20235;-64
2023/11/12 07:13:10;;;;;;;7.33;6.73;;;1.80;99.90;;;2.45;100.00;97070.69;10441896;28;20332;-65
2023/11/12 07:18:13;;;;;;;8.63;7.87;;;1.80;99.90;;;2.40;100.00;97074.50;10441721;28;20606;-65
2023/11/12 07:23:17;;;;;;;10.10;9.40;;;1.80;99.90;;;2.33;100.00;97072.31;10433042;28;20228;-65
2023/11/12 07:28:21;;;;;;;32.43;30.43;;;1.70;99.90;;;2.42;100.00;97085.59;10441525;28;20611;-65
2023/11/12 07:33:24;;;;;;;7.50;7.00;;;1.80;99.90;;;2.54;100.00;97088.16;10442808;28;20255;-65
2023/11/12 07:38:27;;;;;;;7.20;6.57;;;2.00;99.90;;;2.63;100.00;97109.00;10444335;28;20233;-65
2023/11/12 07:43:32;;;;;;;47.87;43.13;;;2.10;99.90;;;2.79;100.00;97106.88;10437548;28;20243;-65
2023/11/12 07:48:35;;;;;;;23.33;21.63;;;2.20;99.90;;;2.99;100.00;97108.34;10444626;28;20228;-65
2023/11/12 07:53:38;;;;;;;12.40;11.40;;;2.20;99.90;;;2.90;100.00;97105.16;10432921;28;20308;-65
2023/11/12 07:58:44;;;;;;;8.97;8.27;;;2.30;99.90;;;2.99;100.00;97110.00;10439415;28;20734;-65
2023/11/12 08:03:47;;;;;;;8.40;7.60;;;2.40;99.90;;;3.03;100.00;97101.88;10443275;28;20231;-64
2023/11/12 08:08:51;;;;;;;8.20;7.40;;;2.40;99.90;;;3.22;100.00;97109.16;10436484;28;20713;-65
2023/11/12 08:13:56;;;;;;;8.37;7.77;;;2.60;99.90;;;3.39;100.00;97098.63;10441789;28;20237;-65
2023/11/12 08:18:59;;;;;;;7.53;6.90;;;2.70;99.90;;;3.46;100.00;97110.91;10427583;28;20236;-65
2023/11/12 08:24:03;;;;;;;8.33;7.73;;;2.70;99.90;;;3.53;100.00;97108.06;10427653;28;20243;-67
2023/11/12 08:29:07;;;;;;;8.03;7.43;;;2.70;99.90;;;3.42;100.00;97103.91;10421414;28;20251;-65
2023/11/12 08:34:11;;;;;;;9.23;8.47;;;2.70;99.90;;;3.51;100.00;97099.50;10424464;28;20238;-65
2023/11/12 08:39:16;;;;;;;8.70;8.00;;;2.90;99.90;;;3.78;100.00;97114.88;10431142;28;20240;-64
2023/11/12 08:44:21;;;;;;;9.60;8.70;;;3.10;99.90;;;4.03;100.00;97120.91;10423102;28;20345;-64
2023/11/12 08:49:25;;;;;;;8.00;7.40;;;3.30;99.90;;;4.07;100.00;97119.44;10425667;28;20228;-65
2023/11/12 08:54:28;;;;;;;7.30;6.63;;;3.40;99.90;;;4.17;100.00;97120.97;10429097;28;20648;-65
2023/11/12 08:59:33;;;;;;;8.20;7.40;;;3.50;99.90;;;4.48;100.00;97111.28;10424741;28;20261;-65
2023/11/12 09:04:36;;;;;;;7.97;7.27;;;3.80;99.90;;;4.62;100.00;97113.13;10427832;28;20375;-64
2023/11/12 09:09:40;;;;;;;7.60;7.00;;;4.00;99.90;;;5.03;100.00;97116.66;10427363;28;20232;-65
2023/11/12 09:14:44;;;;;;;6.93;6.43;;;4.50;99.90;;;5.39;100.00;97123.25;10429379;28;20759;-65
2023/11/12 09:19:47;;;;;;;9.10;8.30;;;4.90;99.90;;;5.96;100.00;97114.22;10421328;28;21075;-65
2023/11/12 09:24:51;;;;;;;8.80;7.77;;;5.30;99.90;;;6.26;100.00;97108.47;10421385;28;20615;-65
2023/11/12 09:30:14;;;;;;;9.00;8.10;;;5.60;99.90;;;6.46;100.00;97111.38;10422340;28;20226;-65
2023/11/12 09:35:18;;;;;;;7.67;7.10;;;5.90;99.90;;;6.61;100.00;97119.91;10425352;28;20450;-64
2023/11/12 09:40:22;;;;;;;8.23;7.53;;;6.10;99.90;;;6.74;100.00;97113.91;10423788;28;20239;-64
2023/11/12 09:45:27;;;;;;;7.57;6.97;;;6.10;99.90;;;6.84;99.04;97117.84;10425382;28;20233;-65
2023/11/12 09:50:34;;;;;;;7.67;6.97;;;6.20;99.90;;;7.08;97.47;97113.34;10433391;28;20240;-64
2023/11/12 09:55:37;;;;;;;7.53;6.77;;;6.50;99.90;;;7.23;97.26;97115.09;10428073;28;20607;-64
2023/11/12 10:00:43;;;;;;;6.20;5.70;;;6.60;99.90;;;7.26;96.00;97111.84;10436313;28;20225;-64
2023/11/12 10:05:46;;;;;;;6.37;5.87;;;6.60;99.90;;;7.23;95.45;97120.19;10430378;28;20307;-65
2023/11/12 10:10:49;;;;;;;6.93;6.33;;;6.50;99.90;;;7.14;95.01;97112.03;10435080;28;20221;-64
2023/11/12 10:15:54;;;;;;;7.50;6.80;;;6.40;99.90;;;7.17;95.33;97112.22;10434700;28;20229;-65
2023/11/12 10:21:07;;;;;;;8.13;7.43;;;6.40;99.90;;;7.24;97.02;97116.00;10434794;28;20232;-64
2023/11/12 10:26:12;;;;;;;6.87;6.27;;;6.50;99.90;;;7.34;98.44;97114.84;10429740;28;20262;-64
2023/11/12 10:31:17;;;;;;;7.70;7.00;;;6.70;99.90;;;7.49;97.77;97102.13;10430628;28;20466;-65
2023/11/12 10:36:20;;;;;;;7.50;6.70;;;6.80;99.90;;;7.73;96.73;97097.56;10429927;28;20245;-65
2023/11/12 10:41:35;;;;;;;8.30;7.50;;;7.00;99.90;;;7.80;95.88;97095.41;10431350;28;20701;-64
2023/11/12 10:46:43;;;;;;;7.70;7.03;;;7.00;99.90;;;7.95;95.31;97094.50;10425776;28;20229;-65
2023/11/12 10:51:48;;;;;;;8.40;7.70;;;7.10;99.90;;;7.84;95.24;97087.19;10436864;28;20236;-65
2023/11/12 10:56:53;;;;;;;8.20;7.47;;;7.10;99.90;;;7.92;95.66;97097.75;10427133;28;20235;-65
2023/11/12 11:02:00;;;;;;;8.90;8.10;;;7.10;99.90;;;8.02;96.17;97087.28;10433240;28;20237;-65
2023/11/12 11:07:04;;;;;;;9.52;8.63;;;7.20;99.90;;;8.15;96.24;97096.44;10434907;28;20225;-64
2023/11/12 11:12:09;;;;;;;9.90;8.90;;;7.30;99.90;;;8.30;95.56;97094.75;10429624;28;20286;-64
2023/11/12 11:17:36;;;;;;;9.55;8.70;;;7.40;99.90;;;8.26;95.32;97087.72;10431018;28;20232;-65
2023/11/12 11:22:39;;;;;;;9.18;8.27;;;7.40;99.90;;;8.38;95.16;97092.59;10430202;28;20236;-64
2023/11/12 11:27:42;;;;;;;7.75;7.15;;;7.50;99.90;;;8.54;94.95;97094.31;10432717;28;20217;-64
2023/11/12 11:33:04;;;;;;;8.07;7.22;;;7.70;99.90;;;8.57;93.34;97086.84;10435873;28;20233;-64
2023/11/12 11:38:12;;;;;;;7.15;6.55;;;7.70;99.90;;;8.69;91.48;97092.56;10430494;28;20780;-65
2023/11/12 11:43:32;;;;;;;7.05;6.35;;;7.80;99.90;;;8.73;93.60;97091.06;10431061;28;20240;-64
2023/11/12 11:48:58;;;;;;;7.80;6.03;;;7.90;99.90;;;8.83;92.89;97083.06;10427820;28;20231;-65
2023/11/12 11:54:05;;;;;;;6.57;5.95;;;8.00;99.90;;;8.94;91.21;97066.66;10430060;28;20781;-65
2023/11/12 11:59:08;;;;;;;6.53;5.93;;;8.10;99.90;;;8.98;89.47;97078.75;10408274;28;20815;-65
2023/11/12 12:04:13;;;;;;;6.82;6.22;;;8.10;99.90;;;9.16;88.70;97073.72;10428709;28;20245;-65
2023/11/12 12:09:18;;;;;;;6.28;5.68;;;8.20;99.90;;;9.11;89.61;97075.16;10429965;28;20249;-64
2023/11/12 12:14:24;;;;;;;6.25;5.75;;;8.20;99.90;;;9.07;89.08;97077.47;10434143;28;20232;-65
2023/11/12 12:19:28;;;;;;;5.53;5.03;;;8.10;99.90;;;9.07;88.68;97082.56;10432139;28;20229;-65
2023/11/12 12:24:35;;;;;;;6.50;5.78;;;8.10;99.90;;;9.00;89.03;97078.84;10431069;28;20331;-65
2023/11/12 12:29:39;;;;;;;5.15;4.75;;;8.10;99.90;;;8.98;88.68;97088.94;10431000;28;20227;-65
2023/11/12 12:34:44;;;;;;;5.35;4.80;;;8.00;99.90;;;8.94;88.36;97074.31;10433410;28;20669;-64
2023/11/12 12:39:52;;;;;;;5.22;4.68;;;8.00;99.90;;;8.97;88.67;97082.09;10432340;28;20229;-65
2023/11/12 12:44:58;;;;;;;8.68;6.93;;;8.10;99.90;;;8.90;87.97;97085.16;10429878;28;20717;-65
2023/11/12 12:50:25;;;;;;;5.88;5.35;;;8.00;99.90;;;8.94;86.82;97081.94;10441875;28;20725;-65
2023/11/12 12:55:30;;;;;;;4.50;4.20;;;8.10;99.90;;;8.91;86.69;97083.47;10438483;28;20320;-64
2023/11/12 13:00:35;;;;;;;7.35;6.38;;;8.10;99.90;;;8.91;86.91;97081.78;10440550;28;20791;-65
2023/11/12 13:05:40;;;;;;;6.70;6.00;;;8.00;99.90;;;8.85;87.02;97084.03;10441566;28;20291;-64
2023/11/12 13:10:43;;;;;;;5.50;4.82;;;8.00;99.90;;;8.89;86.56;97077.41;10441772;28;20221;-65
2023/11/12 13:15:47;;;;;;;4.22;3.78;;;8.00;99.90;;;8.85;85.26;97071.28;10427338;28;20717;-65
2023/11/12 13:20:52;;;;;;;4.07;3.63;;;8.00;99.90;;;8.96;85.85;97079.50;10429958;28;20780;-66
2023/11/12 13:25:58;;;;;;;4.57;4.10;;;8.10;99.90;;;8.93;84.46;97069.16;10427625;28;20548;-66
2023/11/12 13:31:01;;;;;;;4.07;3.58;;;8.10;99.90;;;8.96;85.48;97054.00;10427366;28;20232;-65
2023/11/12 13:36:07;;;;;;;4.18;3.60;;;8.10;99.90;;;8.94;84.70;97053.91;10424597;28;20892;-65
2023/11/12 13:41:10;;;;;;;4.60;4.20;;;8.10;99.90;;;8.88;85.92;97070.59;10421666;28;20230;-65
2023/11/12 13:46:19;;;;;;;4.28;3.97;;;8.00;99.90;;;8.91;86.39;97076.69;10427132;28;20323;-66
2023/11/12 13:51:24;;;;;;;4.03;3.72;;;8.00;99.90;;;8.83;86.62;97079.66;10427307;28;20620;-65
2023/11/12 13:56:27;;;;;;;4.38;4.07;;;8.00;99.90;;;8.82;87.68;97083.88;10424536;28;20231;-64
2023/11/12 14:01:32;;;;;;;4.25;3.80;;;7.90;99.90;;;8.80;89.81;97083.78;10418619;28;20243;-64
2023/11/12 14:06:38;;;;;;;5.40;4.90;;;8.00;99.90;;;8.75;90.84;97075.03;10426959;28;20233;-65
2023/11/12 14:11:41;;;;;;;5.05;4.68;;;7.90;99.90;;;8.72;89.81;97074.88;10434578;28;20232;-65
2023/11/12 14:16:46;;;;;;;5.28;4.28;;;7.90;99.90;;;8.76;89.52;97075.94;10432954;28;20243;-65
2023/11/12 14:21:51;;;;;;;5.05;4.63;;;7.90;99.90;;;8.73;91.30;97075.78;10430097;28;20272;-65
2023/11/12 14:26:55;;;;;;;5.93;4.97;;;7.90;99.90;;;8.68;91.85;97064.47;10430448;28;20233;-65
2023/11/12 14:31:59;;;;;;;7.20;6.50;;;7.90;99.90;;;8.76;92.11;97071.72;10426742;28;20248;-64
2023/11/12 14:37:04;;;;;;;7.68;6.95;;;7.90;99.90;;;8.63;93.91;97063.34;10432295;28;20598;-65
2023/11/12 14:42:08;;;;;;;8.15;6.75;;;7.80;99.90;;;8.62;94.85;97061.63;10434915;28;20776;-66
2023/11/12 14:47:11;;;;;;;6.25;5.47;;;7.90;99.90;;;8.61;96.00;97060.72;10434923;28;20226;-65
2023/11/12 14:52:15;;;;;;;6.65;6.05;;;7.80;99.90;;;8.38;99.01;97066.25;10435032;28;20328;-65
2023/11/12 14:57:19;;;;;;;7.25;6.47;;;7.70;99.90;;;8.38;100.00;97077.31;10436996;28;20225;-64
2023/11/12 15:02:22;;;;;;;10.20;8.90;;;7.70;99.90;;;8.25;100.00;97080.03;10437427;28;20316;-65
2023/11/12 15:07:27;;;;;;;7.97;7.07;;;7.60;99.90;;;8.42;97.19;97089.47;10443175;28;20689;-64
2023/11/12 15:12:31;;;;;;;4.90;4.33;;;7.60;99.90;;;8.39;90.29;97089.31;10446389;28;20229;-65
2023/11/12 15:17:34;;;;;;;4.00;3.70;;;7.50;99.90;;;8.34;87.13;97094.09;10431303;28;20671;-64
2023/11/12 15:22:39;;;;;;;3.70;3.47;;;7.50;99.90;;;7.88;92.33;97108.56;10440646;28;20225;-64
2023/11/12 15:27:44;;;;;;;2.83;2.70;;;7.30;99.90;;;7.80;92.50;97105.59;10438904;28;20221;-64
2023/11/12 15:32:48;;;;;;;2.90;2.70;;;7.10;99.90;;;8.02;89.95;97102.56;10437934;28;20226;-65
2023/11/12 15:37:53;;;;;;;4.10;3.80;;;7.20;99.90;;;7.79;90.28;97108.06;10435764;28;20263;-64
2023/11/12 15:42:57;;;;;;;3.53;3.33;;;7.20;99.90;;;7.71;91.28;97119.47;10426476;28;20232;-65
2023/11/12 15:48:00;;;;;;;3.80;3.50;;;7.00;99.90;;;7.67;91.38;97123.53;10431422;28;20362;-64
2023/11/12 15:53:05;;;;;;;3.47;3.27;;;7.00;99.90;;;7.55;92.51;97132.97;10436171;28;20229;-64
2023/11/12 15:58:11;;;;;;;3.67;3.40;;;6.90;99.90;;;7.35;93.58;97135.25;10437926;28;20545;-64
2023/11/12 16:03:15;;;;;;;10.10;9.17;;;6.80;99.90;;;7.16;95.47;97137.53;10445281;28;20228;-65
2023/11/12 16:08:23;;;;;;;3.80;3.50;;;6.60;99.90;;;7.17;94.75;97140.16;10441291;28;20217;-64
2023/11/12 16:13:27;;;;;;;4.57;4.20;;;6.50;99.90;;;7.13;94.73;97147.53;10440889;28;20233;-65
2023/11/12 16:18:31;;;;;;;3.90;3.60;;;6.50;99.90;;;6.96;96.34;97141.47;10440149;28;20228;-64
2023/11/12 16:23:35;;;;;;;5.00;4.60;;;6.50;99.90;;;6.65;98.43;97148.91;10433175;28;20315;-64
2023/11/12 16:28:40;;;;;;;4.27;3.97;;;6.20;99.90;;;6.70;98.72;97161.09;10430339;28;20217;-64
2023/11/12 16:33:44;;;;;;;4.80;4.40;;;6.10;99.90;;;6.68;100.00;97172.81;10425750;28;20736;-64
2023/11/12 16:38:48;;;;;;;4.37;4.07;;;6.10;99.90;;;6.56;100.00;97177.16;10424134;28;20236;-63
2023/11/12 16:43:52;;;;;;;4.10;3.80;;;6.00;99.90;;;6.46;99.81;97184.97;10425304;28;20243;-65
2023/11/12 16:48:55;;;;;;;4.30;4.00;;;6.00;99.90;;;6.34;100.00;97187.63;10417664;28;20739;-63
2023/11/12 16:53:59;;;;;;;4.13;3.93;;;5.90;99.90;;;6.20;100.00;97196.91;10427942;28;20393;-64
2023/11/12 16:59:03;;;;;;;4.37;4.07;;;5.70;99.90;;;6.14;100.00;97193.13;10425584;28;20221;-64
2023/11/12 17:04:06;;;;;;;5.50;5.10;;;5.60;99.90;;;5.96;100.00;97205.53;10430130;28;20231;-63
2023/11/12 17:09:13;;;;;;;4.67;4.33;;;5.50;99.90;;;5.83;100.00;97212.28;10437974;28;20221;-65
2023/11/12 17:14:16;;;;;;;5.17;4.70;;;5.40;99.90;;;5.91;100.00;97222.06;10438741;28;20232;-65
2023/11/12 17:19:19;;;;;;;5.70;5.20;;;5.40;99.90;;;5.85;100.00;97228.50;10431037;28;20217;-64
2023/11/12 17:24:24;;;;;;;6.57;5.97;;;5.30;99.90;;;5.77;100.00;97226.25;10439754;28;20279;-66
2023/11/12 17:29:27;;;;;;;9.23;7.77;;;5.20;99.90;;;5.64;100.00;97227.09;10430699;28;20690;-64
2023/11/12 17:34:30;;;;;;;12.13;10.00;;;5.10;99.90;;;5.48;100.00;97237.88;10428198;28;20721;-65
2023/11/12 17:39:35;;;;;;;5.80;5.40;;;5.00;99.90;;;5.52;100.00;97233.88;10430851;28;20231;-64
2023/11/12 17:44:39;;;;;;;4.80;4.50;;;5.00;99.90;;;5.40;100.00;97232.28;10435618;28;20300;-64
2023/11/12 17:49:43;;;;;;;7.60;6.73;;;4.90;99.90;;;5.37;100.00;97241.34;10430209;28;20221;-64
2023/11/12 17:54:47;;;;;;;5.10;4.77;;;4.90;99.90;;;5.34;100.00;97236.97;10427002;28;20241;-64
2023/11/12 17:59:50;;;;;;;4.17;3.87;;;4.90;99.90;;;5.32;100.00;97243.59;10438145;28;20235;-65
2023/11/12 18:04:54;;;;;;;3.63;3.43;;;4.90;99.90;;;5.28;100.00;97251.75;10433266;28;20221;-66
2023/11/12 18:10:00;;;;;;;3.53;3.33;;;4.80;99.90;;;5.19;100.00;97261.28;10439603;28;20275;-64
2023/11/12 18:15:03;;;;;;;3.77;3.57;;;4.70;99.90;;;5.05;100.00;97262.84;10440642;28;20639;-64
2023/11/12 18:20:07;;;;;;;4.43;4.03;;;4.60;99.90;;;5.12;100.00;97264.16;10446028;28;20228;-65
2023/11/12 18:25:12;;;;;;;4.70;4.30;;;4.60;99.90;;;5.28;100.00;97245.81;10434607;28;20229;-65
2023/11/12 18:30:16;;;;;;;5.07;4.70;;;4.70;99.90;;;5.19;100.00;97251.13;10430945;28;20765;-65
2023/11/12 18:35:21;;;;;;;6.03;5.53;;;4.60;99.90;;;4.81;100.00;97267.13;10435803;28;20519;-66
2023/11/12 18:40:26;;;;;;;5.17;4.87;;;4.40;99.90;;;4.83;100.00;97264.69;10427682;28;20244;-64
2023/11/12 18:45:30;;;;;;;6.40;5.90;;;4.40;99.90;;;4.83;100.00;97262.16;10427955;28;20247;-65
2023/11/12 18:50:35;;;;;;;7.83;7.13;;;4.40;99.90;;;4.79;100.00;97268.66;10425510;28;20336;-65
2023/11/12 18:55:40;;;;;;;6.80;6.20;;;4.40;99.90;;;4.81;100.00;97277.25;10427339;28;20336;-64
2023/11/12 19:00:44;;;;;;;5.33;5.03;;;4.40;99.90;;;4.73;100.00;97294.44;10425566;28;20225;-65
2023/11/12 19:05:48;;;;;;;5.13;4.77;;;4.40;99.90;;;4.73;100.00;97306.22;10423768;28;20299;-66
2023/11/12 19:10:52;;;;;;;5.17;4.77;;;4.40;99.90;;;4.66;100.00;97307.41;10418910;28;20230;-65
2023/11/12 19:15:58;;;;;;;5.27;4.93;;;4.40;99.90;;;4.69;100.00;97320.31;10424461;28;20240;-65
2023/11/12 19:21:03;;;;;;;5.20;4.90;;;4.30;99.90;;;4.68;100.00;97321.06;10430066;28;20240;-66
2023/11/12 19:26:08;;;;;;;6.00;5.50;;;4.30;99.90;;;4.80;100.00;97315.97;10431476;28;20226;-65
2023/11/12 19:31:11;;;;;;;5.57;5.20;;;4.40;99.90;;;4.90;100.00;97327.66;10427141;28;20252;-65
2023/11/12 19:36:32;;;;;;;5.97;5.57;;;4.50;99.90;;;5.00;100.00;97321.56;10429465;28;20239;-66
2023/11/12 19:41:37;;;;;;;8.17;7.47;;;4.50;99.90;;;5.01;100.00;97333.44;10430279;28;20228;-65
2023/11/12 19:46:42;;;;;;;8.10;7.40;;;4.60;99.90;;;5.00;100.00;97324.09;10431097;28;20229;-67
2023/11/12 19:51:45;;;;;;;11.33;10.23;;;4.50;99.90;;;4.99;100.00;97317.28;10434535;28;20649;-66
2023/11/12 19:56:50;;;;;;;8.13;7.53;;;4.50;99.90;;;4.94;100.00;97333.03;10424506;28;20497;-65
2023/11/12 20:01:54;;;;;;;159.03;121.60;;;4.50;99.90;;;4.93;100.00;97322.81;10430913;28;20242;-65
2023/11/12 20:06:59;;;;;;;45.93;41.07;;;4.40;99.90;;;4.85;100.00;97329.84;10419076;28;20232;-65
2023/11/12 20:12:04;;;;;;;10.07;9.17;;;4.40;99.90;;;4.77;100.00;97320.84;10415315;28;20234;-66
2023/11/12 20:17:08;;;;;;;7.53;6.83;;;4.30;99.90;;;4.88;100.00;97334.25;10426762;28;20236;-66
2023/11/12 20:22:17;;;;;;;8.63;7.83;;;4.50;99.90;;;4.92;100.00;97333.69;10418394;28;20229;-65
2023/11/12 20:27:22;;;;;;;11.23;10.17;;;4.50;99.90;;;4.96;100.00;97334.00;10413116;28;20308;-66
2023/11/12 20:32:27;;;;;;;9.50;8.67;;;4.50;99.90;;;5.06;100.00;97339.72;10419647;28;20284;-66
2023/11/12 20:37:31;;;;;;;8.13;7.37;;;4.60;99.90;;;5.05;100.00;97358.22;10426102;28;20599;-65
2023/11/12 20:42:35;;;;;;;6.53;6.03;;;4.50;99.90;;;5.14;100.00;97363.94;10419485;28;20248;-64
2023/11/12 20:47:39;;;;;;;7.33;6.70;;;4.60;99.90;;;5.18;100.00;97350.72;10427915;28;20236;-65
2023/11/12 20:52:42;;;;;;;8.40;7.70;;;4.70;99.90;;;5.20;100.00;97369.41;10422609;28;20244;-66
2023/11/12 20:57:46;;;;;;;7.57;6.97;;;4.70;99.90;;;5.22;100.00;97361.94;10425356;28;20716;-67
2023/11/12 21:02:53;;;;;;;6.13;5.60;;;4.70;99.90;;;5.16;100.00;97359.84;10418404;28;20236;-66
2023/11/12 21:07:56;;;;;;;6.27;5.70;;;4.70;99.90;;;5.16;100.00;97342.13;10424099;28;20447;-66
2023/11/12 21:13:02;;;;;;;6.87;6.33;;;4.60;99.90;;;5.13;100.00;97329.25;10425199;28;20232;-66
2023/11/12 21:18:05;;;;;;;7.47;6.87;;;4.60;99.90;;;5.09;100.00;97347.53;10422736;28;20226;-66
2023/11/12 21:23:11;;;;;;;6.50;6.00;;;4.60;99.90;;;5.06;100.00;97360.84;10434462;28;20286;-66